Time,TemperatureF,DewpointF,PressureIn,WindDirection,WindDirectionDegrees,WindSpeedMPH,WindSpeedGustMPH,Humidity,HourlyPrecipIn,Conditions,Clouds,dailyrainin,SoftwareType,DateUTC
2013-01-01 00:03:00,32.9,24.8,30.23,SE,135,0.0,0.0,72,0.00,,,0.00,WUHU216HW,2013-01-01 08:03:00,
2013-01-01 00:08:00,32.9,24.8,30.23,SE,135,0.0,0.0,72,0.00,,,0.00,WUHU216HW,2013-01-01 08:08:00,
2013-01-01 00:13:00,32.9,24.8,30.23,SE,135,0.0,0.0,72,0.00,,,0.00,WUHU216HW,2013-01-01 08:13:00,
2013-01-01 00:19:00,32.7,24.8,30.23,SE,135,0.0,0.0,72,0.00,,,0.00,WUHU216HW,2013-01-01 08:19:00,
2013-01-01 00:24:00,32.7,24.6,30.23,SE,135,0.0,0.0,72,0.00,,,0.00,WUHU216HW,2013-01-01 08:24:00,
2013-01-01 00:29:00,32.7,24.6,30.23,SE,135,0.0,0.0,72,0.00,,,0.00,WUHU216HW,2013-01-01 08:29:00,
2013-01-01 00:34:00,32.5,24.4,30.23,SE,135,0.0,0.0,72,0.00,,,0.00,WUHU216HW,2013-01-01 08:34:00,
2013-01-01 00:39:00,32.7,24.6,30.23,SE,135,0.0,0.0,72,0.00,,,0.00,WUHU216HW,2013-01-01 08:39:00,
2013-01-01 00:44:00,32.5,24.4,30.23,SE,135,0.0,0.0,72,0.00,,,0.00,WUHU216HW,2013-01-01 08:44:00,
2013-01-01 00:49:00,32.7,24.9,30.23,SE,135,0.0,0.0,73,0.00,,,0.00,WUHU216HW,2013-01-01 08:49:00,
2013-01-01 00:54:00,32.5,24.8,30.23,SE,135,0.0,0.0,73,0.00,,,0.00,WUHU216HW,2013-01-01 08:54:00,
2013-01-01 00:59:00,32.3,24.6,30.22,SE,135,0.0,0.0,73,0.00,,,0.00,WUHU216HW,2013-01-01 08:59:00,
2013-01-01 01:04:00,32.3,24.6,30.22,SE,135,0.0,0.0,73,0.00,,,0.00,WUHU216HW,2013-01-01 09:04:00,
2013-01-01 01:09:00,32.3,24.6,30.22,SE,135,0.0,0.0,73,0.00,,,0.00,WUHU216HW,2013-01-01 09:09:00,
2013-01-01 01:14:00,32.3,24.6,30.22,SE,135,0.0,0.0,73,0.00,,,0.00,WUHU216HW,2013-01-01 09:14:00,
2013-01-01 01:19:00,32.3,24.6,30.22,SE,135,0.0,0.0,73,0.00,,,0.00,WUHU216HW,2013-01-01 09:19:00,
2013-01-01 01:24:00,32.3,24.6,30.22,SE,135,0.0,0.0,73,0.00,,,0.00,WUHU216HW,2013-01-01 09:24:00,
2013-01-01 01:29:00,32.3,24.6,30.22,SSE,158,0.0,0.0,73,0.00,,,0.00,WUHU216HW,2013-01-01 09:29:00,
2013-01-01 01:34:00,32.7,25.3,30.22,SSE,158,0.0,0.0,74,0.00,,,0.00,WUHU216HW,2013-01-01 09:34:00,
2013-01-01 01:39:00,32.7,25.6,30.21,SSE,158,0.0,0.0,75,0.00,,,0.00,WUHU216HW,2013-01-01 09:39:00,
2013-01-01 01:44:00,32.7,25.6,30.22,SSE,158,0.0,0.0,75,0.00,,,0.00,WUHU216HW,2013-01-01 09:44:00,
2013-01-01 01:49:00,32.7,25.6,30.22,SSE,158,0.0,0.0,75,0.00,,,0.00,WUHU216HW,2013-01-01 09:49:00,
2013-01-01 01:54:00,32.7,25.6,30.23,SE,135,1.1,1.1,75,0.00,,,0.00,WUHU216HW,2013-01-01 09:54:00,
2013-01-01 01:59:00,32.9,25.7,30.23,SSE,158,0.0,1.1,75,0.00,,,0.00,WUHU216HW,2013-01-01 09:59:00,
2013-01-01 02:04:00,32.9,26.1,30.23,SSE,158,0.0,0.0,76,0.00,,,0.00,WUHU216HW,2013-01-01 10:04:00,
2013-01-01 02:09:00,33.0,26.2,30.24,SSE,158,0.0,0.0,76,0.00,,,0.00,WUHU216HW,2013-01-01 10:09:00,
2013-01-01 02:14:00,33.2,26.4,30.24,SSE,158,0.0,0.0,76,0.00,,,0.00,WUHU216HW,2013-01-01 10:14:00,
2013-01-01 02:19:00,33.2,26.4,30.24,SSE,158,0.0,0.0,76,0.00,,,0.00,WUHU216HW,2013-01-01 10:19:00,
2013-01-01 02:24:00,33.2,26.4,30.24,South,180,0.0,0.0,76,0.00,,,0.00,WUHU216HW,2013-01-01 10:24:00,
2013-01-01 02:29:00,33.4,26.6,30.25,SSE,158,0.0,0.0,76,0.00,,,0.00,WUHU216HW,2013-01-01 10:29:00,
2013-01-01 02:34:00,33.6,26.7,30.24,SSE,158,0.0,0.0,76,0.00,,,0.00,WUHU216HW,2013-01-01 10:34:00,
2013-01-01 02:39:00,33.6,27.0,30.25,SE,135,0.0,0.0,77,0.00,,,0.00,WUHU216HW,2013-01-01 10:39:00,
2013-01-01 02:44:00,33.9,27.4,30.25,SE,135,0.0,0.0,77,0.00,,,0.00,WUHU216HW,2013-01-01 10:44:00,
2013-01-01 02:49:00,34.1,27.6,30.25,SE,135,0.0,0.0,77,0.00,,,0.00,WUHU216HW,2013-01-01 10:49:00,
2013-01-01 02:54:00,34.1,27.6,30.25,SE,135,0.0,0.0,77,0.00,,,0.00,WUHU216HW,2013-01-01 10:54:00,
2013-01-01 02:59:00,34.5,27.9,30.25,SE,135,0.0,0.0,77,0.00,,,0.00,WUHU216HW,2013-01-01 10:59:00,
2013-01-01 03:04:00,34.8,28.3,30.25,SE,135,0.0,0.0,77,0.00,,,0.00,WUHU216HW,2013-01-01 11:04:00,
2013-01-01 03:10:00,34.8,28.3,30.25,SE,135,0.0,0.0,77,0.00,,,0.00,WUHU216HW,2013-01-01 11:10:00,
2013-01-01 03:15:00,35.0,28.5,30.25,SE,135,0.0,0.0,77,0.00,,,0.00,WUHU216HW,2013-01-01 11:15:00,
2013-01-01 03:20:00,35.2,28.6,30.25,SE,135,0.0,0.0,77,0.00,,,0.00,WUHU216HW,2013-01-01 11:20:00,
2013-01-01 03:25:00,35.2,28.6,30.25,SE,135,0.0,0.0,77,0.00,,,0.00,WUHU216HW,2013-01-01 11:25:00,
2013-01-01 03:30:00,35.2,28.6,30.24,SE,135,0.0,0.0,77,0.00,,,0.00,WUHU216HW,2013-01-01 11:30:00,
2013-01-01 03:35:00,35.2,28.6,30.24,SE,135,0.0,0.0,77,0.00,,,0.00,WUHU216HW,2013-01-01 11:35:00,
2013-01-01 03:40:00,35.6,29.0,30.24,SE,135,0.0,0.0,77,0.00,,,0.00,WUHU216HW,2013-01-01 11:40:00,
2013-01-01 03:45:00,35.6,29.0,30.24,SE,135,0.0,0.0,77,0.00,,,0.00,WUHU216HW,2013-01-01 11:45:00,
2013-01-01 03:50:00,35.4,28.8,30.25,SE,135,0.0,0.0,77,0.00,,,0.00,WUHU216HW,2013-01-01 11:50:00,
2013-01-01 03:55:00,35.6,29.0,30.24,SE,135,0.0,0.0,77,0.00,,,0.00,WUHU216HW,2013-01-01 11:55:00,
2013-01-01 04:00:00,35.2,28.6,30.24,SE,135,0.0,0.0,77,0.00,,,0.00,WUHU216HW,2013-01-01 12:00:00,
2013-01-01 04:05:00,35.2,28.3,30.24,SE,135,0.0,0.0,76,0.00,,,0.00,WUHU216HW,2013-01-01 12:05:00,
2013-01-01 04:10:00,35.2,28.3,30.24,SE,135,0.0,0.0,76,0.00,,,0.00,WUHU216HW,2013-01-01 12:10:00,
2013-01-01 04:15:00,35.0,28.1,30.23,SE,135,0.0,0.0,76,0.00,,,0.00,WUHU216HW,2013-01-01 12:15:00,
2013-01-01 04:20:00,34.8,28.0,30.23,SE,135,0.0,0.0,76,0.00,,,0.00,WUHU216HW,2013-01-01 12:20:00,
2013-01-01 04:25:00,34.8,28.0,30.23,SE,135,0.0,0.0,76,0.00,,,0.00,WUHU216HW,2013-01-01 12:25:00,
2013-01-01 04:30:00,34.7,27.5,30.23,SE,135,0.0,0.0,75,0.00,,,0.00,WUHU216HW,2013-01-01 12:30:00,
2013-01-01 04:35:00,34.3,27.1,30.23,SE,135,0.0,0.0,75,0.00,,,0.00,WUHU216HW,2013-01-01 12:35:00,
2013-01-01 04:40:00,34.3,27.1,30.23,SE,135,0.0,0.0,75,0.00,,,0.00,WUHU216HW,2013-01-01 12:40:00,
2013-01-01 04:45:00,34.1,26.9,30.23,SE,135,0.0,0.0,75,0.00,,,0.00,WUHU216HW,2013-01-01 12:45:00,
2013-01-01 04:50:00,33.9,26.7,30.23,SE,135,0.0,0.0,75,0.00,,,0.00,WUHU216HW,2013-01-01 12:50:00,
2013-01-01 04:55:00,33.8,26.6,30.23,SE,135,0.0,0.0,75,0.00,,,0.00,WUHU216HW,2013-01-01 12:55:00,
2013-01-01 05:00:00,33.8,26.6,30.23,SE,135,0.0,0.0,75,0.00,,,0.00,WUHU216HW,2013-01-01 13:00:00,
2013-01-01 05:05:00,33.4,26.2,30.23,SE,135,0.0,0.0,75,0.00,,,0.00,WUHU216HW,2013-01-01 13:05:00,
2013-01-01 05:10:00,33.2,26.1,30.23,SE,135,0.0,0.0,75,0.00,,,0.00,WUHU216HW,2013-01-01 13:10:00,
2013-01-01 05:15:00,33.2,26.1,30.24,SE,135,0.0,0.0,75,0.00,,,0.00,WUHU216HW,2013-01-01 13:15:00,
2013-01-01 05:20:00,33.0,25.9,30.24,SE,135,0.0,0.0,75,0.00,,,0.00,WUHU216HW,2013-01-01 13:20:00,
2013-01-01 05:25:00,33.0,25.9,30.23,SE,135,0.0,0.0,75,0.00,,,0.00,WUHU216HW,2013-01-01 13:25:00,
2013-01-01 05:30:00,32.9,25.7,30.23,SE,135,0.0,0.0,75,0.00,,,0.00,WUHU216HW,2013-01-01 13:30:00,
2013-01-01 05:35:00,32.9,25.7,30.23,SE,135,0.0,0.0,75,0.00,,,0.00,WUHU216HW,2013-01-01 13:35:00,
2013-01-01 05:40:00,32.7,25.6,30.23,SE,135,0.0,0.0,75,0.00,,,0.00,WUHU216HW,2013-01-01 13:40:00,
2013-01-01 05:45:00,32.5,25.4,30.23,SE,135,0.0,0.0,75,0.00,,,0.00,WUHU216HW,2013-01-01 13:45:00,
2013-01-01 05:50:00,32.3,25.3,30.24,SE,135,0.0,0.0,75,0.00,,,0.00,WUHU216HW,2013-01-01 13:50:00,
2013-01-01 05:55:00,32.3,25.3,30.24,SE,135,0.0,0.0,75,0.00,,,0.00,WUHU216HW,2013-01-01 13:55:00,
2013-01-01 06:00:00,32.1,25.1,30.25,SE,135,0.0,0.0,75,0.00,,,0.00,WUHU216HW,2013-01-01 14:00:00,
2013-01-01 06:05:00,32.1,25.1,30.24,East,90,0.0,0.0,75,0.00,,,0.00,WUHU216HW,2013-01-01 14:05:00,
2013-01-01 06:10:00,32.1,25.1,30.24,NE,45,0.0,0.0,75,0.00,,,0.00,WUHU216HW,2013-01-01 14:10:00,
2013-01-01 06:15:00,32.1,25.4,30.25,NE,45,0.0,0.0,76,0.00,,,0.00,WUHU216HW,2013-01-01 14:15:00,
2013-01-01 06:20:00,32.3,25.6,30.25,NE,45,0.0,0.0,76,0.00,,,0.00,WUHU216HW,2013-01-01 14:20:00,
2013-01-01 06:25:00,32.1,25.4,30.24,NE,45,0.0,0.0,76,0.00,,,0.00,WUHU216HW,2013-01-01 14:25:00,
2013-01-01 06:30:00,32.1,25.4,30.25,NE,45,0.0,0.0,76,0.00,,,0.00,WUHU216HW,2013-01-01 14:30:00,
2013-01-01 06:35:00,32.3,25.6,30.25,NE,45,0.0,0.0,76,0.00,,,0.00,WUHU216HW,2013-01-01 14:35:00,
2013-01-01 06:40:00,32.3,25.9,30.25,NE,45,0.0,0.0,77,0.00,,,0.00,WUHU216HW,2013-01-01 14:40:00,
2013-01-01 06:45:00,32.3,25.9,30.25,NE,45,0.0,0.0,77,0.00,,,0.00,WUHU216HW,2013-01-01 14:45:00,
2013-01-01 06:50:00,32.3,25.9,30.24,NE,45,0.0,0.0,77,0.00,,,0.00,WUHU216HW,2013-01-01 14:50:00,
2013-01-01 06:55:00,32.1,25.4,30.24,NE,45,0.0,0.0,76,0.00,,,0.00,WUHU216HW,2013-01-01 14:55:00,
2013-01-01 07:00:00,32.1,25.4,30.24,NE,45,0.0,0.0,76,0.00,,,0.00,WUHU216HW,2013-01-01 15:00:00,
2013-01-01 07:06:00,32.1,25.4,30.25,NE,45,0.0,0.0,76,0.00,,,0.00,WUHU216HW,2013-01-01 15:06:00,
2013-01-01 07:11:00,31.6,24.9,30.24,NE,45,0.0,0.0,76,0.00,,,0.00,WUHU216HW,2013-01-01 15:11:00,
2013-01-01 07:16:00,31.4,24.7,30.24,NE,45,0.0,0.0,76,0.00,,,0.00,WUHU216HW,2013-01-01 15:16:00,
2013-01-01 07:21:00,31.4,24.7,30.24,NE,45,0.0,0.0,76,0.00,,,0.00,WUHU216HW,2013-01-01 15:21:00,
2013-01-01 07:26:00,31.4,24.7,30.24,NE,45,0.0,0.0,76,0.00,,,0.00,WUHU216HW,2013-01-01 15:26:00,
2013-01-01 07:31:00,31.4,25.0,30.24,NE,45,0.0,0.0,77,0.00,,,0.00,WUHU216HW,2013-01-01 15:31:00,
2013-01-01 07:36:00,31.1,24.7,30.24,NE,45,0.0,0.0,77,0.00,,,0.00,WUHU216HW,2013-01-01 15:36:00,
2013-01-01 07:41:00,30.9,24.5,30.24,NE,45,0.0,0.0,77,0.00,,,0.00,WUHU216HW,2013-01-01 15:41:00,
2013-01-01 07:46:00,30.9,24.5,30.24,NE,45,0.0,0.0,77,0.00,,,0.00,WUHU216HW,2013-01-01 15:46:00,
2013-01-01 07:51:00,30.9,24.3,30.24,NE,45,0.0,0.0,77,0.00,,,0.00,WUHU216HW,2013-01-01 15:51:00,
2013-01-01 07:56:00,30.5,24.1,30.24,NE,45,0.0,0.0,77,0.00,,,0.00,WUHU216HW,2013-01-01 15:56:00,
2013-01-01 08:01:00,30.7,24.3,30.24,NE,45,0.0,0.0,77,0.00,,,0.00,WUHU216HW,2013-01-01 16:01:00,
2013-01-01 08:06:00,30.5,24.1,30.23,NE,45,0.0,0.0,77,0.00,,,0.00,WUHU216HW,2013-01-01 16:06:00,
2013-01-01 08:11:00,30.5,24.1,30.23,NE,45,0.0,0.0,77,0.00,,,0.00,WUHU216HW,2013-01-01 16:11:00,
2013-01-01 08:16:00,30.5,24.1,30.23,NE,45,0.0,0.0,77,0.00,,,0.00,WUHU216HW,2013-01-01 16:16:00,
2013-01-01 08:21:00,30.9,24.5,30.23,NE,45,0.0,0.0,77,0.00,,,0.00,WUHU216HW,2013-01-01 16:21:00,
2013-01-01 08:26:00,30.9,24.5,30.23,NE,45,0.0,0.0,77,0.00,,,0.00,WUHU216HW,2013-01-01 16:26:00,
2013-01-01 08:31:00,31.1,25.0,30.23,NE,45,0.0,0.0,78,0.00,,,0.00,WUHU216HW,2013-01-01 16:31:00,
2013-01-01 08:36:00,31.1,25.0,30.23,NE,45,0.0,0.0,78,0.00,,,0.00,WUHU216HW,2013-01-01 16:36:00,
2013-01-01 08:41:00,31.6,25.5,30.23,NE,45,0.0,0.0,78,0.00,,,0.00,WUHU216HW,2013-01-01 16:41:00,
2013-01-01 08:46:00,31.6,25.5,30.23,NE,45,0.0,0.0,78,0.00,,,0.00,WUHU216HW,2013-01-01 16:46:00,
2013-01-01 08:51:00,32.1,26.4,30.23,NE,45,0.0,0.0,79,0.00,,,0.00,WUHU216HW,2013-01-01 16:51:00,
2013-01-01 08:56:00,32.3,26.6,30.23,NE,45,0.0,0.0,79,0.00,,,0.00,WUHU216HW,2013-01-01 16:56:00,
2013-01-01 09:01:00,32.9,27.4,30.23,NE,45,0.0,0.0,80,0.00,,,0.00,WUHU216HW,2013-01-01 17:01:00,
2013-01-01 09:06:00,33.2,27.7,30.23,NE,45,0.0,0.0,80,0.00,,,0.00,WUHU216HW,2013-01-01 17:06:00,
2013-01-01 09:11:00,33.4,27.8,30.23,NE,45,0.0,0.0,80,0.00,,,0.00,WUHU216HW,2013-01-01 17:11:00,
2013-01-01 09:16:00,33.9,28.6,30.23,NE,45,0.0,0.0,81,0.00,,,0.00,WUHU216HW,2013-01-01 17:16:00,
2013-01-01 09:21:00,34.5,29.2,30.23,NE,45,0.0,0.0,81,0.00,,,0.00,WUHU216HW,2013-01-01 17:21:00,
2013-01-01 09:26:00,34.7,29.4,30.23,NE,45,0.0,0.0,81,0.00,,,0.00,WUHU216HW,2013-01-01 17:26:00,
2013-01-01 09:31:00,35.4,30.4,30.23,South,180,0.4,0.4,82,0.00,,,0.00,WUHU216HW,2013-01-01 17:31:00,
2013-01-01 09:36:00,35.9,30.9,30.23,WSW,248,0.0,0.4,82,0.00,,,0.00,WUHU216HW,2013-01-01 17:36:00,
2013-01-01 09:41:00,36.8,32.1,30.23,WSW,248,0.0,0.0,83,0.00,,,0.00,WUHU216HW,2013-01-01 17:41:00,
2013-01-01 09:46:00,37.0,32.3,30.23,WSW,248,0.0,0.0,83,0.00,,,0.00,WUHU216HW,2013-01-01 17:46:00,
2013-01-01 09:51:00,37.0,32.3,30.24,WSW,248,0.0,0.0,83,0.00,,,0.00,WUHU216HW,2013-01-01 17:51:00,
2013-01-01 09:56:00,38.8,34.1,30.24,WSW,248,0.0,0.0,83,0.00,,,0.00,WUHU216HW,2013-01-01 17:56:00,
2013-01-01 10:01:00,39.3,34.6,30.25,WSW,248,0.0,0.0,83,0.00,,,0.00,WUHU216HW,2013-01-01 18:01:00,
2013-01-01 10:06:00,39.9,35.1,30.25,WSW,248,0.0,0.0,83,0.00,,,0.00,WUHU216HW,2013-01-01 18:06:00,
2013-01-01 10:11:00,40.6,35.8,30.25,WSW,248,0.0,0.0,83,0.00,,,0.00,WUHU216HW,2013-01-01 18:11:00,
2013-01-01 10:16:00,41.1,36.0,30.25,WSW,248,0.0,0.0,82,0.00,,,0.00,WUHU216HW,2013-01-01 18:16:00,
2013-01-01 10:21:00,41.3,36.2,30.25,WSW,248,0.0,0.0,82,0.00,,,0.00,WUHU216HW,2013-01-01 18:21:00,
2013-01-01 10:26:00,41.9,36.4,30.26,WSW,248,0.0,1.5,81,0.00,,,0.00,WUHU216HW,2013-01-01 18:26:00,
2013-01-01 10:31:00,42.0,35.9,30.26,WSW,248,2.9,2.9,79,0.00,,,0.00,WUHU216HW,2013-01-01 18:31:00,
2013-01-01 10:36:00,42.0,35.9,30.26,WSW,248,0.0,2.9,79,0.00,,,0.00,WUHU216HW,2013-01-01 18:36:00,
2013-01-01 10:41:00,42.2,35.8,30.27,WNW,293,0.0,2.9,78,0.00,,,0.00,WUHU216HW,2013-01-01 18:41:00,
2013-01-01 10:46:00,42.2,35.8,30.27,WSW,248,0.0,0.0,78,0.00,,,0.00,WUHU216HW,2013-01-01 18:46:00,
2013-01-01 10:51:00,42.2,35.8,30.27,WSW,248,0.0,0.0,78,0.00,,,0.00,WUHU216HW,2013-01-01 18:51:00,
2013-01-01 10:56:00,42.8,36.3,30.26,WSW,248,0.0,0.0,78,0.00,,,0.00,WUHU216HW,2013-01-01 18:56:00,
2013-01-01 11:01:00,42.9,36.2,30.27,WSW,248,0.0,0.0,77,0.00,,,0.00,WUHU216HW,2013-01-01 19:01:00,
2013-01-01 11:06:00,42.9,36.2,30.25,WSW,248,0.0,0.0,77,0.00,,,0.00,WUHU216HW,2013-01-01 19:06:00,
2013-01-01 11:11:00,43.5,36.7,30.25,WSW,248,0.0,0.0,77,0.00,,,0.00,WUHU216HW,2013-01-01 19:11:00,
2013-01-01 11:16:00,43.7,36.9,30.25,WSW,248,0.0,0.0,77,0.00,,,0.00,WUHU216HW,2013-01-01 19:16:00,
2013-01-01 11:21:00,44.0,36.6,30.24,WSW,248,0.0,0.0,75,0.00,,,0.00,WUHU216HW,2013-01-01 19:21:00,
2013-01-01 11:26:00,44.4,36.9,30.24,NW,315,0.0,0.0,75,0.00,,,0.00,WUHU216HW,2013-01-01 19:26:00,
2013-01-01 11:31:00,44.9,37.4,30.24,WSW,248,0.0,0.0,75,0.00,,,0.00,WUHU216HW,2013-01-01 19:31:00,
2013-01-01 11:37:00,45.3,37.8,30.24,WSW,248,0.0,0.0,75,0.00,,,0.00,WUHU216HW,2013-01-01 19:37:00,
2013-01-01 11:42:00,45.5,38.0,30.24,ESE,113,0.0,0.0,75,0.00,,,0.00,WUHU216HW,2013-01-01 19:42:00,
2013-01-01 11:47:00,46.7,39.2,30.24,WSW,248,0.0,0.0,75,0.00,,,0.00,WUHU216HW,2013-01-01 19:47:00,
2013-01-01 11:52:00,46.9,39.7,30.23,WSW,248,0.0,0.0,74,0.00,,,0.00,WUHU216HW,2013-01-01 19:52:00,
2013-01-01 11:57:00,48.3,40.0,30.23,North,0,0.0,0.0,73,0.00,,,0.00,WUHU216HW,2013-01-01 19:57:00,
2013-01-01 12:02:00,48.7,40.0,30.23,NNW,338,0.0,0.0,72,0.00,,,0.00,WUHU216HW,2013-01-01 20:02:00,
2013-01-01 12:07:00,49.6,40.2,30.23,NW,315,0.0,0.0,70,0.00,,,0.00,WUHU216HW,2013-01-01 20:07:00,
2013-01-01 12:12:00,50.1,40.0,30.23,ESE,113,2.4,3.3,68,0.00,,,0.00,WUHU216HW,2013-01-01 20:12:00,
2013-01-01 12:17:00,50.1,40.0,30.23,ESE,113,2.4,3.3,68,0.00,,,0.00,WUHU216HW,2013-01-01 20:17:00,
2013-01-01 12:22:00,50.1,39.2,30.23,SE,135,0.0,2.4,66,0.00,,,0.00,WUHU216HW,2013-01-01 20:22:00,
2013-01-01 12:27:00,51.6,40.6,30.23,SE,135,0.0,0.0,66,0.00,,,0.00,WUHU216HW,2013-01-01 20:27:00,
2013-01-01 12:32:00,52.1,40.7,30.23,SE,135,6.2,6.2,65,0.00,,,0.00,WUHU216HW,2013-01-01 20:32:00,
2013-01-01 12:37:00,52.5,41.0,30.23,ESE,113,5.5,6.2,65,0.00,,,0.00,WUHU216HW,2013-01-01 20:37:00,
2013-01-01 12:42:00,53.7,41.8,30.23,ESE,113,1.7,6.2,64,0.00,,,0.00,WUHU216HW,2013-01-01 20:42:00,
2013-01-01 12:47:00,54.3,41.9,30.23,NE,45,1.7,5.5,63,0.00,,,0.00,WUHU216HW,2013-01-01 20:47:00,
2013-01-01 12:52:00,55.2,41.5,30.23,ESE,113,2.0,5.3,60,0.00,,,0.00,WUHU216HW,2013-01-01 20:52:00,
2013-01-01 12:57:00,56.3,42.6,30.23,SSE,158,4.0,5.3,60,0.00,,,0.00,WUHU216HW,2013-01-01 20:57:00,
2013-01-01 13:02:00,57.2,42.5,30.23,ESE,113,4.6,4.6,58,0.00,,,0.00,WUHU216HW,2013-01-01 21:02:00,
2013-01-01 13:07:00,58.1,42.4,30.23,ESE,113,1.1,4.6,56,0.00,,,0.00,WUHU216HW,2013-01-01 21:07:00,
2013-01-01 13:12:00,58.4,41.8,30.22,WSW,248,0.0,4.0,54,0.00,,,0.00,WUHU216HW,2013-01-01 21:12:00,
2013-01-01 13:17:00,59.1,42.0,30.21,SE,135,2.9,2.9,53,0.00,,,0.00,WUHU216HW,2013-01-01 21:17:00,
2013-01-01 13:22:00,59.1,41.0,30.21,SE,135,0.0,3.3,51,0.00,,,0.00,WUHU216HW,2013-01-01 21:22:00,
2013-01-01 13:27:00,60.4,41.1,30.21,ESE,113,1.3,3.3,49,0.00,,,0.00,WUHU216HW,2013-01-01 21:27:00,
2013-01-01 13:32:00,60.4,40.0,30.21,SE,135,1.3,1.3,47,0.00,,,0.00,WUHU216HW,2013-01-01 21:32:00,
2013-01-01 13:37:00,60.9,39.9,30.22,ESE,113,2.0,6.4,46,0.00,,,0.00,WUHU216HW,2013-01-01 21:37:00,
2013-01-01 13:42:00,60.9,39.3,30.22,SE,135,5.3,6.4,45,0.00,,,0.00,WUHU216HW,2013-01-01 21:42:00,
2013-01-01 13:47:00,62.0,39.7,30.21,SSE,158,0.0,5.3,44,0.00,,,0.00,WUHU216HW,2013-01-01 21:47:00,
2013-01-01 13:52:00,62.9,39.9,30.21,SE,135,3.1,5.3,43,0.00,,,0.00,WUHU216HW,2013-01-01 21:52:00,
2013-01-01 13:57:00,63.5,40.4,30.21,SE,135,3.1,3.1,43,0.00,,,0.00,WUHU216HW,2013-01-01 21:57:00,
2013-01-01 14:02:00,64.0,39.8,30.21,South,180,4.2,4.2,41,0.00,,,0.00,WUHU216HW,2013-01-01 22:02:00,
2013-01-01 14:07:00,65.3,40.9,30.21,North,0,0.0,4.2,41,0.00,,,0.00,WUHU216HW,2013-01-01 22:07:00,
2013-01-01 14:12:00,65.8,40.1,30.21,ESE,113,0.0,0.0,39,0.00,,,0.00,WUHU216HW,2013-01-01 22:12:00,
2013-01-01 14:17:00,66.7,40.2,30.21,ESE,113,0.0,1.5,38,0.00,,,0.00,WUHU216HW,2013-01-01 22:17:00,
2013-01-01 14:22:00,67.1,39.0,30.21,SSE,158,4.6,4.6,36,0.00,,,0.00,WUHU216HW,2013-01-01 22:22:00,
2013-01-01 14:27:00,67.8,38.9,30.21,SSE,158,4.6,4.6,35,0.00,,,0.00,WUHU216HW,2013-01-01 22:27:00,
2013-01-01 14:32:00,68.1,39.2,30.21,SE,135,1.1,4.6,33,0.00,,,0.00,WUHU216HW,2013-01-01 22:32:00,
2013-01-01 14:37:00,68.3,37.2,30.21,SSE,158,1.3,4.6,32,0.00,,,0.00,WUHU216HW,2013-01-01 22:37:00,
2013-01-01 14:42:00,68.3,36.4,30.20,SE,135,2.2,2.2,31,0.00,,,0.00,WUHU216HW,2013-01-01 22:42:00,
2013-01-01 14:47:00,68.3,36.6,30.20,East,90,0.0,2.2,31,0.00,,,0.00,WUHU216HW,2013-01-01 22:47:00,
2013-01-01 14:52:00,68.7,36.8,30.20,SE,135,1.7,2.2,31,0.00,,,0.00,WUHU216HW,2013-01-01 22:52:00,
2013-01-01 14:57:00,68.9,36.2,30.20,NE,45,0.0,1.7,30,0.00,,,0.00,WUHU216HW,2013-01-01 22:57:00,
2013-01-01 15:02:00,68.9,36.2,30.20,ESE,113,3.8,3.8,30,0.00,,,0.00,WUHU216HW,2013-01-01 23:02:00,
2013-01-01 15:07:00,68.9,36.2,30.20,ESE,113,3.8,3.8,30,0.00,,,0.00,WUHU216HW,2013-01-01 23:07:00,
2013-01-01 15:12:00,69.0,35.3,30.20,SSW,203,1.3,3.8,29,0.00,,,0.00,WUHU216HW,2013-01-01 23:12:00,
2013-01-01 15:17:00,69.0,37.1,30.20,SSE,158,5.8,5.8,30,0.00,,,0.00,WUHU216HW,2013-01-01 23:17:00,
2013-01-01 15:22:00,69.2,37.2,30.20,SSE,158,0.0,5.8,31,0.00,,,0.00,WUHU216HW,2013-01-01 23:22:00,
2013-01-01 15:27:00,69.0,37.1,30.20,South,180,3.8,5.8,31,0.00,,,0.00,WUHU216HW,2013-01-01 23:27:00,
2013-01-01 15:32:00,68.9,36.9,30.20,East,90,1.7,3.8,31,0.00,,,0.00,WUHU216HW,2013-01-01 23:32:00,
2013-01-01 15:37:00,68.7,37.5,30.20,ENE,68,2.4,3.1,32,0.00,,,0.00,WUHU216HW,2013-01-01 23:37:00,
2013-01-01 15:42:00,68.7,37.5,30.19,SE,135,0.0,2.4,32,0.00,,,0.00,WUHU216HW,2013-01-01 23:42:00,
2013-01-01 15:47:00,68.1,36.3,30.19,SE,135,0.0,2.4,31,0.00,,,0.00,WUHU216HW,2013-01-01 23:47:00,
2013-01-01 15:52:00,67.4,34.9,30.19,ESE,113,0.0,0.0,30,0.00,,,0.00,WUHU216HW,2013-01-01 23:52:00,
2013-01-01 15:57:00,67.1,34.7,30.19,ESE,113,0.0,0.0,30,0.00,,,0.00,WUHU216HW,2013-01-01 23:57:00,
2013-01-01 16:02:00,64.2,32.1,30.19,North,0,0.0,0.6,30,0.00,,,0.00,WUHU216HW,2013-01-02 00:02:00,
2013-01-01 16:07:00,63.5,31.5,30.19,North,0,0.0,0.6,30,0.00,,,0.00,WUHU216HW,2013-01-02 00:07:00,
2013-01-01 16:12:00,61.7,31.3,30.18,North,0,0.0,0.0,32,0.00,,,0.00,WUHU216HW,2013-01-02 00:12:00,
2013-01-01 16:17:00,60.4,30.2,30.18,North,0,0.0,0.0,32,0.00,,,0.00,WUHU216HW,2013-01-02 00:17:00,
2013-01-01 16:22:00,58.8,29.6,30.18,North,0,0.0,0.0,33,0.00,,,0.00,WUHU216HW,2013-01-02 00:22:00,
2013-01-01 16:27:00,57.9,28.8,30.18,North,0,0.0,0.0,33,0.00,,,0.00,WUHU216HW,2013-01-02 00:27:00,
2013-01-01 16:32:00,57.2,30.2,30.18,North,0,0.0,0.0,36,0.00,,,0.00,WUHU216HW,2013-01-02 00:32:00,
2013-01-01 16:37:00,56.4,30.3,30.18,NNW,338,0.0,0.0,36,0.00,,,0.00,WUHU216HW,2013-01-02 00:37:00,
2013-01-01 16:42:00,55.4,29.3,30.18,NNW,338,0.0,0.0,37,0.00,,,0.00,WUHU216HW,2013-01-02 00:42:00,
2013-01-01 16:47:00,54.5,29.2,30.18,NNW,338,0.0,0.0,38,0.00,,,0.00,WUHU216HW,2013-01-02 00:47:00,
2013-01-01 16:52:00,53.7,29.3,30.18,NNW,338,0.0,0.0,39,0.00,,,0.00,WUHU216HW,2013-01-02 00:52:00,
2013-01-01 16:57:00,53.0,28.6,30.18,NNW,338,0.0,0.0,39,0.00,,,0.00,WUHU216HW,2013-01-02 00:57:00,
2013-01-01 17:02:00,52.5,28.8,30.18,NNW,338,0.0,0.0,40,0.00,,,0.00,WUHU216HW,2013-01-02 01:02:00,
2013-01-01 17:07:00,51.6,28.6,30.18,NNW,338,0.0,0.0,41,0.00,,,0.00,WUHU216HW,2013-01-02 01:07:00,
2013-01-01 17:12:00,51.6,29.1,30.18,NNW,338,0.0,0.0,42,0.00,,,0.00,WUHU216HW,2013-01-02 01:12:00,
2013-01-01 17:17:00,50.7,28.3,30.19,NNW,338,0.0,0.0,42,0.00,,,0.00,WUHU216HW,2013-01-02 01:17:00,
2013-01-01 17:22:00,50.3,28.5,30.19,NNW,338,0.0,0.0,43,0.00,,,0.00,WUHU216HW,2013-01-02 01:22:00,
2013-01-01 17:27:00,49.2,27.5,30.19,NNW,338,0.0,0.0,43,0.00,,,0.00,WUHU216HW,2013-01-02 01:27:00,
2013-01-01 17:32:00,48.5,26.9,30.19,NNW,338,0.0,0.0,43,0.00,,,0.00,WUHU216HW,2013-01-02 01:32:00,
2013-01-01 17:38:00,47.6,26.6,30.19,NNW,338,0.0,0.0,44,0.00,,,0.00,WUHU216HW,2013-01-02 01:38:00,
2013-01-01 17:43:00,47.6,26.6,30.19,NNW,338,0.0,0.0,44,0.00,,,0.00,WUHU216HW,2013-01-02 01:43:00,
2013-01-01 17:48:00,46.5,26.2,30.20,NNW,338,0.0,0.0,45,0.00,,,0.00,WUHU216HW,2013-01-02 01:48:00,
2013-01-01 17:53:00,45.6,25.9,30.20,NNW,338,0.0,0.0,46,0.00,,,0.00,WUHU216HW,2013-01-02 01:53:00,
2013-01-01 17:58:00,45.5,26.8,30.20,NNW,338,0.0,0.0,48,0.00,,,0.00,WUHU216HW,2013-01-02 01:58:00,
2013-01-01 18:03:00,44.7,26.2,30.19,NNW,338,0.0,0.0,48,0.00,,,0.00,WUHU216HW,2013-01-02 02:03:00,
2013-01-01 18:08:00,44.2,26.2,30.19,North,0,0.0,0.0,49,0.00,,,0.00,WUHU216HW,2013-01-02 02:08:00,
2013-01-01 18:13:00,43.7,25.7,30.19,North,0,0.0,0.0,49,0.00,,,0.00,WUHU216HW,2013-01-02 02:13:00,
2013-01-01 18:18:00,43.5,25.6,30.19,SW,225,0.0,0.0,49,0.00,,,0.00,WUHU216HW,2013-01-02 02:18:00,
2013-01-01 18:23:00,43.1,25.8,30.19,SW,225,0.0,0.0,50,0.00,,,0.00,WUHU216HW,2013-01-02 02:23:00,
2013-01-01 18:28:00,42.9,26.1,30.19,SW,225,0.0,0.0,51,0.00,,,0.00,WUHU216HW,2013-01-02 02:28:00,
2013-01-01 18:33:00,42.4,25.5,30.20,SW,225,0.0,0.0,51,0.00,,,0.00,WUHU216HW,2013-01-02 02:33:00,
2013-01-01 18:38:00,42.2,25.4,30.20,SW,225,0.0,0.0,51,0.00,,,0.00,WUHU216HW,2013-01-02 02:38:00,
2013-01-01 18:43:00,41.9,25.0,30.20,SW,225,0.0,0.0,51,0.00,,,0.00,WUHU216HW,2013-01-02 02:43:00,
2013-01-01 18:48:00,41.5,25.5,30.19,SW,225,0.0,0.0,53,0.00,,,0.00,WUHU216HW,2013-01-02 02:48:00,
2013-01-01 18:53:00,41.1,25.6,30.19,SW,225,0.0,0.0,54,0.00,,,0.00,WUHU216HW,2013-01-02 02:53:00,
2013-01-01 18:58:00,40.6,25.1,30.19,SW,225,0.0,0.0,54,0.00,,,0.00,WUHU216HW,2013-01-02 02:58:00,
2013-01-01 19:03:00,40.4,24.9,30.20,SSE,158,0.0,0.0,54,0.00,,,0.00,WUHU216HW,2013-01-02 03:03:00,
2013-01-01 19:08:00,40.1,25.1,30.20,SSE,158,0.0,0.0,55,0.00,,,0.00,WUHU216HW,2013-01-02 03:08:00,
2013-01-01 19:13:00,39.9,24.9,30.20,SSE,158,0.0,0.0,55,0.00,,,0.00,WUHU216HW,2013-01-02 03:13:00,
2013-01-01 19:18:00,39.5,24.6,30.20,SSE,158,0.0,0.0,55,0.00,,,0.00,WUHU216HW,2013-01-02 03:18:00,
2013-01-01 19:23:00,39.2,24.2,30.19,SSE,158,0.0,0.0,55,0.00,,,0.00,WUHU216HW,2013-01-02 03:23:00,
2013-01-01 19:28:00,38.8,23.9,30.20,SSE,158,0.0,0.0,55,0.00,,,0.00,WUHU216HW,2013-01-02 03:28:00,
2013-01-01 19:33:00,38.8,24.3,30.19,SSE,158,0.0,0.0,56,0.00,,,0.00,WUHU216HW,2013-01-02 03:33:00,
2013-01-01 19:38:00,38.4,24.4,30.19,SSE,158,0.0,0.0,57,0.00,,,0.00,WUHU216HW,2013-01-02 03:38:00,
2013-01-01 19:43:00,38.3,24.3,30.19,SSE,158,0.0,0.0,57,0.00,,,0.00,WUHU216HW,2013-01-02 03:43:00,
2013-01-01 19:48:00,38.1,24.1,30.19,SSE,158,0.0,0.0,57,0.00,,,0.00,WUHU216HW,2013-01-02 03:48:00,
2013-01-01 19:53:00,37.9,23.9,30.20,South,180,0.6,0.6,57,0.00,,,0.00,WUHU216HW,2013-01-02 03:53:00,
2013-01-01 19:58:00,37.7,24.2,30.20,South,180,0.0,0.6,58,0.00,,,0.00,WUHU216HW,2013-01-02 03:58:00,
2013-01-01 20:03:00,37.5,24.5,30.20,South,180,0.0,0.6,59,0.00,,,0.00,WUHU216HW,2013-01-02 04:03:00,
2013-01-01 20:08:00,37.5,24.5,30.20,South,180,0.0,0.0,59,0.00,,,0.00,WUHU216HW,2013-01-02 04:08:00,
2013-01-01 20:13:00,37.2,24.2,30.20,South,180,0.0,0.0,59,0.00,,,0.00,WUHU216HW,2013-01-02 04:13:00,
2013-01-01 20:18:00,37.0,24.0,30.21,WSW,248,0.0,0.0,59,0.00,,,0.00,WUHU216HW,2013-01-02 04:18:00,
2013-01-01 20:23:00,36.8,23.8,30.21,WSW,248,0.0,0.0,59,0.00,,,0.00,WUHU216HW,2013-01-02 04:23:00,
2013-01-01 20:28:00,36.8,23.8,30.21,WSW,248,0.0,0.0,59,0.00,,,0.00,WUHU216HW,2013-01-02 04:28:00,
2013-01-01 20:33:00,36.3,23.3,30.21,WSW,248,0.0,0.0,59,0.00,,,0.00,WUHU216HW,2013-01-02 04:33:00,
2013-01-01 20:38:00,36.3,23.3,30.21,WSW,248,0.0,0.0,59,0.00,,,0.00,WUHU216HW,2013-01-02 04:38:00,
2013-01-01 20:43:00,36.1,23.2,30.21,WSW,248,0.0,0.0,59,0.00,,,0.00,WUHU216HW,2013-01-02 04:43:00,
2013-01-01 20:48:00,35.7,22.9,30.21,WSW,248,0.0,0.0,59,0.00,,,0.00,WUHU216HW,2013-01-02 04:48:00,
2013-01-01 20:53:00,35.7,23.3,30.21,WSW,248,0.0,0.0,60,0.00,,,0.00,WUHU216HW,2013-01-02 04:53:00,
2013-01-01 20:58:00,35.7,23.3,30.21,WSW,248,0.0,0.0,60,0.00,,,0.00,WUHU216HW,2013-01-02 04:58:00,
2013-01-01 21:03:00,35.2,22.8,30.22,WSW,248,0.0,0.0,60,0.00,,,0.00,WUHU216HW,2013-01-02 05:03:00,
2013-01-01 21:08:00,35.2,22.8,30.22,WSW,248,0.0,0.0,60,0.00,,,0.00,WUHU216HW,2013-01-02 05:08:00,
2013-01-01 21:13:00,35.2,22.8,30.22,WSW,248,0.0,0.0,60,0.00,,,0.00,WUHU216HW,2013-01-02 05:13:00,
2013-01-01 21:18:00,35.2,23.1,30.22,SSE,158,0.0,0.0,61,0.00,,,0.00,WUHU216HW,2013-01-02 05:18:00,
2013-01-01 21:23:00,35.0,23.3,30.22,SSE,158,0.0,0.0,62,0.00,,,0.00,WUHU216HW,2013-01-02 05:23:00,
2013-01-01 21:28:00,35.0,23.3,30.23,SSE,158,0.0,0.0,62,0.00,,,0.00,WUHU216HW,2013-01-02 05:28:00,
2013-01-01 21:33:00,35.0,23.7,30.22,SSE,158,0.0,0.0,63,0.00,,,0.00,WUHU216HW,2013-01-02 05:33:00,
2013-01-01 21:38:00,35.0,23.7,30.23,SSE,158,0.0,0.0,63,0.00,,,0.00,WUHU216HW,2013-01-02 05:38:00,
2013-01-01 21:43:00,35.2,24.2,30.23,SSE,158,0.0,0.0,64,0.00,,,0.00,WUHU216HW,2013-01-02 05:43:00,
2013-01-01 21:48:00,35.2,24.6,30.22,SW,225,0.0,0.0,65,0.00,,,0.00,WUHU216HW,2013-01-02 05:48:00,
2013-01-01 21:53:00,35.6,24.9,30.22,SW,225,0.0,0.0,65,0.00,,,0.00,WUHU216HW,2013-01-02 05:53:00,
2013-01-01 21:58:00,35.6,25.3,30.22,SW,225,0.0,0.0,66,0.00,,,0.00,WUHU216HW,2013-01-02 05:58:00,
2013-01-01 22:03:00,35.6,24.9,30.22,SW,225,0.0,0.0,65,0.00,,,0.00,WUHU216HW,2013-01-02 06:03:00,
2013-01-01 22:08:00,35.4,24.8,30.23,SW,225,0.0,0.0,65,0.00,,,0.00,WUHU216HW,2013-01-02 06:08:00,
2013-01-01 22:13:00,35.2,24.6,30.23,SW,225,0.0,0.0,65,0.00,,,0.00,WUHU216HW,2013-01-02 06:13:00,
2013-01-01 22:18:00,35.0,24.4,30.23,SW,225,0.0,0.0,65,0.00,,,0.00,WUHU216HW,2013-01-02 06:18:00,
2013-01-01 22:23:00,35.0,24.4,30.23,SW,225,0.0,0.0,65,0.00,,,0.00,WUHU216HW,2013-01-02 06:23:00,
2013-01-01 22:28:00,34.8,24.2,30.23,SSW,203,0.0,0.0,65,0.00,,,0.00,WUHU216HW,2013-01-02 06:28:00,
2013-01-01 22:33:00,34.8,24.2,30.23,SSE,158,0.0,0.0,65,0.00,,,0.00,WUHU216HW,2013-01-02 06:33:00,
2013-01-01 22:38:00,34.7,24.0,30.23,SSE,158,0.0,0.0,65,0.00,,,0.00,WUHU216HW,2013-01-02 06:38:00,
2013-01-01 22:43:00,34.5,23.9,30.23,SSE,158,0.0,0.0,65,0.00,,,0.00,WUHU216HW,2013-01-02 06:43:00,
2013-01-01 22:48:00,34.5,24.2,30.23,SSE,158,0.0,0.0,66,0.00,,,0.00,WUHU216HW,2013-01-02 06:48:00,
2013-01-01 22:53:00,34.7,24.4,30.23,West,270,0.0,0.0,66,0.00,,,0.00,WUHU216HW,2013-01-02 06:53:00,
2013-01-01 22:58:00,34.7,24.4,30.23,West,270,0.0,0.0,66,0.00,,,0.00,WUHU216HW,2013-01-02 06:58:00,
2013-01-01 23:03:00,34.5,24.2,30.23,West,270,0.0,0.0,66,0.00,,,0.00,WUHU216HW,2013-01-02 07:03:00,
2013-01-01 23:08:00,34.5,24.2,30.23,West,270,0.0,0.0,66,0.00,,,0.00,WUHU216HW,2013-01-02 07:08:00,
2013-01-01 23:13:00,34.3,24.0,30.23,West,270,0.0,0.0,66,0.00,,,0.00,WUHU216HW,2013-01-02 07:13:00,
2013-01-01 23:19:00,34.3,24.0,30.23,WSW,248,0.0,0.0,66,0.00,,,0.00,WUHU216HW,2013-01-02 07:19:00,
2013-01-01 23:24:00,34.1,23.9,30.23,WSW,248,0.0,0.0,66,0.00,,,0.00,WUHU216HW,2013-01-02 07:24:00,
2013-01-01 23:29:00,34.1,23.9,30.23,WSW,248,0.0,0.0,66,0.00,,,0.00,WUHU216HW,2013-01-02 07:29:00,
2013-01-01 23:34:00,33.9,23.7,30.23,WSW,248,0.0,0.0,66,0.00,,,0.00,WUHU216HW,2013-01-02 07:34:00,
2013-01-01 23:39:00,33.9,23.7,30.23,WSW,248,0.0,0.0,66,0.00,,,0.00,WUHU216HW,2013-01-02 07:39:00,
2013-01-01 23:44:00,33.9,23.7,30.23,WSW,248,0.0,0.0,66,0.00,,,0.00,WUHU216HW,2013-01-02 07:44:00,
2013-01-01 23:49:00,33.8,23.3,30.23,WSW,248,0.0,0.0,66,0.00,,,0.00,WUHU216HW,2013-01-02 07:49:00,
2013-01-01 23:54:00,33.4,23.2,30.23,WSW,248,0.0,0.0,66,0.00,,,0.00,WUHU216HW,2013-01-02 07:54:00,
2013-01-01 23:59:00,33.4,23.2,30.23,WSW,248,0.0,0.0,66,0.00,,,0.00,WUHU216HW,2013-01-02 07:59:00,